Time;durP1;ratioP1;P1;durP2;ratioP2;P2;SDS_P1;SDS_P2;PMS_P1;PMS_P2;Temp;Humidity;BMP_temperature;BMP_pressure;BME280_temperature;BME280_humidity;BME280_pressure;Samples;Min_cycle;Max_cycle;Signal;HPM_P1;HPM_P2
2023/01/04 00:01:04;;;;;;;10.45;2.55;;;9.00;99.90;;;;;;4858562;29;20077;-71
2023/01/04 00:03:33;;;;;;;9.23;2.03;;;9.10;99.90;;;;;;4854798;29;20053;-70
2023/01/04 00:06:01;;;;;;;6.75;2.10;;;9.00;99.90;;;;;;4839205;29;20072;-71
2023/01/04 00:08:27;;;;;;;5.32;2.22;;;9.00;99.90;;;;;;4860486;29;20053;-70
2023/01/04 00:11:00;;;;;;;6.13;2.10;;;9.00;99.90;;;;;;4859175;29;20483;-71
2023/01/04 00:13:25;;;;;;;7.88;2.10;;;9.10;99.90;;;;;;4858605;29;20065;-70
2023/01/04 00:15:51;;;;;;;5.43;2.10;;;9.00;99.90;;;;;;4859102;29;20558;-71
2023/01/04 00:18:17;;;;;;;6.45;2.13;;;9.00;99.90;;;;;;4859003;29;20057;-71
2023/01/04 00:20:42;;;;;;;4.78;2.17;;;9.00;99.90;;;;;;4859068;29;20128;-70
2023/01/04 00:23:08;;;;;;;6.15;2.10;;;9.10;99.90;;;;;;4843016;29;20038;-70
2023/01/04 00:25:36;;;;;;;5.90;2.20;;;9.00;99.90;;;;;;4858941;29;20045;-71
2023/01/04 00:28:02;;;;;;;7.60;2.45;;;9.00;99.90;;;;;;4858752;29;20486;-70
2023/01/04 00:30:28;;;;;;;5.82;2.00;;;9.10;99.90;;;;;;4842341;29;20102;-71
2023/01/04 00:32:53;;;;;;;6.53;2.10;;;9.10;99.90;;;;;;4858548;29;20092;-70
2023/01/04 00:35:19;;;;;;;4.45;2.08;;;9.10;99.90;;;;;;4858890;29;20047;-71
2023/01/04 00:37:44;;;;;;;6.45;2.00;;;9.10;99.90;;;;;;4843406;29;20757;-71
2023/01/04 00:40:13;;;;;;;7.30;2.58;;;9.00;99.90;;;;;;4842922;29;20054;-71
2023/01/04 00:42:39;;;;;;;6.95;2.60;;;9.10;99.90;;;;;;4858425;29;20502;-70
2023/01/04 00:45:05;;;;;;;4.35;2.00;;;9.10;99.90;;;;;;4859208;29;20049;-70
2023/01/04 00:47:31;;;;;;;8.60;2.38;;;9.10;99.90;;;;;;4858451;29;20077;-70
2023/01/04 00:49:56;;;;;;;5.00;2.25;;;9.20;99.90;;;;;;4842916;29;20080;-70
2023/01/04 00:52:22;;;;;;;8.95;2.50;;;9.20;99.90;;;;;;4858676;29;20105;-70
2023/01/04 00:54:48;;;;;;;5.18;2.25;;;9.20;99.90;;;;;;4859331;29;20509;-70
2023/01/04 00:57:13;;;;;;;6.30;2.30;;;9.20;99.90;;;;;;4842739;29;20057;-71
2023/01/04 00:59:39;;;;;;;6.88;2.30;;;9.20;99.90;;;;;;4858235;29;20054;-71
2023/01/04 01:02:05;;;;;;;6.68;2.50;;;9.30;99.90;;;;;;4858424;29;20173;-70
2023/01/04 01:04:30;;;;;;;4.88;2.17;;;9.30;99.90;;;;;;4858220;29;20050;-71
2023/01/04 01:06:56;;;;;;;5.63;2.38;;;9.40;99.90;;;;;;4858198;29;20467;-70
2023/01/04 01:09:22;;;;;;;4.50;2.20;;;9.40;99.90;;;;;;4842364;29;20037;-71
2023/01/04 01:11:48;;;;;;;5.75;2.40;;;9.50;99.90;;;;;;4858356;29;20490;-70
2023/01/04 01:14:23;;;;;;;6.03;2.42;;;9.50;99.90;;;;;;4857915;29;20394;-71
2023/01/04 01:16:49;;;;;;;5.82;2.30;;;9.50;99.90;;;;;;4858107;29;20041;-71
2023/01/04 01:19:15;;;;;;;8.30;2.90;;;9.50;99.90;;;;;;4857905;29;20053;-71
2023/01/04 01:21:41;;;;;;;7.88;2.80;;;9.50;99.90;;;;;;4859180;29;20110;-71
2023/01/04 01:24:15;;;;;;;5.22;2.20;;;9.50;99.90;;;;;;4856585;29;20093;-70
2023/01/04 01:26:44;;;;;;;5.47;2.50;;;9.50;99.90;;;;;;4858106;29;20121;-70
2023/01/04 01:29:09;;;;;;;6.32;2.20;;;9.60;99.90;;;;;;4842212;29;20045;-70
2023/01/04 01:31:35;;;;;;;6.93;2.70;;;9.60;99.90;;;;;;4857502;29;20049;-71
2023/01/04 01:34:01;;;;;;;7.53;2.53;;;9.70;99.90;;;;;;4857788;29;20042;-70
2023/01/04 01:36:27;;;;;;;6.03;2.40;;;9.70;99.90;;;;;;4857619;29;20101;-70
2023/01/04 01:38:53;;;;;;;5.82;2.67;;;9.70;99.90;;;;;;4857725;29;20054;-70
2023/01/04 01:41:27;;;;;;;;;;;9.80;99.90;;;;;;4842800;29;20460;-70
2023/01/04 01:44:05;;;;;;;5.55;2.60;;;9.80;99.90;;;;;;4857341;29;20270;-70
2023/01/04 01:46:42;;;;;;;5.75;2.47;;;9.70;99.90;;;;;;4857537;29;20045;-70
2023/01/04 01:49:22;;;;;;;4.17;2.30;;;9.80;99.90;;;;;;4857192;29;20045;-70
2023/01/04 01:51:49;;;;;;;9.13;3.45;;;9.80;99.90;;;;;;4857334;29;20639;-71
2023/01/04 01:54:42;;;;;;;5.50;2.58;;;9.80;99.90;;;;;;4857332;29;20121;-70
2023/01/04 01:57:12;;;;;;;6.10;2.38;;;9.90;99.90;;;;;;4857554;29;20057;-71
2023/01/04 01:59:41;;;;;;;3.70;1.90;;;9.90;99.90;;;;;;4857097;29;20144;-75
2023/01/04 02:02:12;;;;;;;5.22;2.10;;;10.10;99.90;;;;;;4848634;29;20086;-76
2023/01/04 02:04:44;;;;;;;5.05;2.20;;;10.00;99.90;;;;;;4856870;29;20119;-76
2023/01/04 02:07:13;;;;;;;4.43;1.92;;;10.10;99.90;;;;;;4857670;29;20544;-75
2023/01/04 02:09:39;;;;;;;3.90;1.70;;;10.10;99.90;;;;;;4839189;29;20048;-76
2023/01/04 02:12:09;;;;;;;;;;;10.10;99.90;;;;;;4842896;29;20056;-75
2023/01/04 02:14:35;;;;;;;4.63;2.17;;;10.10;99.90;;;;;;4858546;29;19920;-76
2023/01/04 02:17:13;;;;;;;4.25;1.77;;;10.20;99.90;;;;;;4856310;29;20561;-74
2023/01/04 02:19:52;;;;;;;3.22;1.77;;;10.30;99.90;;;;;;4841699;29;20053;-75
2023/01/04 02:22:46;;;;;;;4.93;1.60;;;10.40;99.90;;;;;;4855989;29;20132;-74
2023/01/04 02:25:27;;;;;;;3.88;1.92;;;10.40;99.90;;;;;;4850729;29;20057;-75
2023/01/04 02:28:01;;;;;;;2.17;1.40;;;10.40;99.90;;;;;;4841050;29;20128;-75
2023/01/04 02:31:00;;;;;;;2.90;1.52;;;10.60;99.90;;;;;;4856708;29;20094;-75
2023/01/04 02:33:51;;;;;;;5.22;1.50;;;10.50;99.90;;;;;;4857823;29;20131;-69
2023/01/04 02:36:33;;;;;;;3.13;1.23;;;10.80;99.90;;;;;;4856955;29;20045;-69
2023/01/04 02:39:31;;;;;;;3.42;1.25;;;10.80;99.90;;;;;;4856825;29;20201;-69
2023/01/04 02:42:19;;;;;;;1.88;1.10;;;10.80;99.90;;;;;;4847197;29;20072;-68
2023/01/04 02:45:03;;;;;;;2.72;0.98;;;11.00;99.90;;;;;;4839799;29;20057;-69
2023/01/04 02:50:31;;;;;;;1.98;1.10;;;10.80;99.90;;;;;;4838450;29;20050;-69
2023/01/04 02:53:17;;;;;;;1.60;0.88;;;10.90;99.90;;;;;;4831686;29;20054;-69
2023/01/04 02:55:55;;;;;;;1.38;0.82;;;11.10;99.90;;;;;;4853842;29;20058;-70
2023/01/04 02:58:43;;;;;;;2.15;1.00;;;11.10;99.90;;;;;;4823661;29;20061;-69
2023/01/04 03:07:29;;;;;;;2.53;0.90;;;11.40;99.90;;;;;;4854306;29;20077;-76
2023/01/04 03:10:04;;;;;;;2.17;0.88;;;11.50;99.90;;;;;;4857620;29;20046;-76
2023/01/04 03:12:37;;;;;;;1.27;0.70;;;11.60;99.90;;;;;;4846846;29;20054;-75
2023/01/04 03:15:28;;;;;;;1.27;0.60;;;11.40;99.90;;;;;;4844364;29;20106;-75
2023/01/04 03:18:20;;;;;;;0.73;0.50;;;11.70;99.90;;;;;;4846381;29;20062;-75
2023/01/04 03:20:47;;;;;;;2.60;0.70;;;11.70;99.90;;;;;;4856832;29;20148;-75
2023/01/04 03:37:47;;;;;;;0.68;0.50;;;11.90;99.90;;;;;;4859212;29;20139;-75
2023/01/04 03:49:21;;;;;;;1.40;0.63;;;12.20;99.90;;;;;;4851002;29;20069;-75
2023/01/04 03:51:50;;;;;;;0.50;0.50;;;12.50;99.90;;;;;;4861538;29;20111;-75
2023/01/04 03:54:28;;;;;;;0.95;0.68;;;12.50;99.90;;;;;;4859102;29;20057;-75
2023/01/04 03:56:56;;;;;;;0.77;0.60;;;12.20;99.90;;;;;;4860604;29;20057;-76
2023/01/04 03:59:22;;;;;;;0.75;0.60;;;12.30;99.90;;;;;;4848159;29;20049;-76
2023/01/04 04:01:48;;;;;;;1.00;0.82;;;12.30;99.90;;;;;;4842043;29;20396;-76
2023/01/04 04:09:44;;;;;;;1.70;0.80;;;12.70;99.90;;;;;;4847369;29;20045;-76
2023/01/04 04:12:09;;;;;;;2.30;0.82;;;12.70;99.90;;;;;;4844471;29;20045;-75
2023/01/04 04:14:35;;;;;;;0.63;0.63;;;12.90;99.90;;;;;;4844599;29;20124;-76
2023/01/04 04:17:01;;;;;;;1.35;0.82;;;12.80;99.90;;;;;;4859263;29;20049;-75
2023/01/04 04:19:26;;;;;;;1.90;0.90;;;13.20;99.90;;;;;;4842742;29;20064;-76
2023/01/04 04:21:52;;;;;;;1.30;0.95;;;12.90;99.90;;;;;;4858884;29;20045;-76
2023/01/04 04:24:23;;;;;;;0.80;0.77;;;12.90;99.90;;;;;;4857587;29;20085;-75
2023/01/04 04:26:49;;;;;;;1.40;1.10;;;13.30;99.90;;;;;;4857798;29;20030;-76
2023/01/04 04:29:15;;;;;;;;;;;13.50;99.90;;;;;;4860112;29;20097;-76
2023/01/04 04:31:41;;;;;;;2.15;1.23;;;13.30;99.90;;;;;;4858515;29;19931;-76
2023/01/04 04:34:06;;;;;;;1.25;1.13;;;13.60;99.90;;;;;;4844420;29;20144;-76
2023/01/04 04:36:32;;;;;;;1.52;1.10;;;13.40;99.90;;;;;;4856568;29;20045;-76
2023/01/04 04:38:58;;;;;;;1.23;1.10;;;13.40;99.90;;;;;;4859208;29;20049;-76
2023/01/04 04:41:40;;;;;;;1.65;1.23;;;13.40;99.90;;;;;;4859908;29;20041;-76
2023/01/04 04:44:19;;;;;;;1.33;1.23;;;13.50;99.90;;;;;;4857451;29;20483;-76
2023/01/04 04:46:46;;;;;;;1.33;1.23;;;13.80;99.90;;;;;;4858548;29;20049;-77
2023/01/04 04:49:15;;;;;;;1.48;1.25;;;13.90;99.90;;;;;;4858360;29;20057;-76
2023/01/04 04:51:43;;;;;;;1.40;1.30;;;13.60;99.90;;;;;;4859284;29;20041;-77
2023/01/04 04:54:11;;;;;;;1.75;1.27;;;14.00;99.90;;;;;;4858096;29;20057;-77
2023/01/04 04:56:38;;;;;;;2.17;1.30;;;13.60;99.90;;;;;;4858822;29;20054;-77
2023/01/04 04:59:04;;;;;;;1.88;1.48;;;13.60;99.90;;;;;;4858662;29;20090;-77
2023/01/04 05:01:30;;;;;;;1.70;1.60;;;14.00;99.90;;;;;;4858616;29;20055;-77
2023/01/04 05:03:56;;;;;;;2.28;1.77;;;13.90;99.90;;;;;;4858056;29;20045;-77
2023/01/04 05:06:22;;;;;;;2.38;1.67;;;14.10;99.90;;;;;;4858420;29;20490;-77
2023/01/04 05:08:48;;;;;;;1.77;1.60;;;13.80;99.90;;;;;;4855918;29;20088;-77
2023/01/04 05:11:14;;;;;;;2.25;1.50;;;13.80;99.90;;;;;;4849880;29;20155;-77
2023/01/04 05:13:40;;;;;;;1.55;1.42;;;13.90;99.90;;;;;;4858712;29;20057;-77
2023/01/04 05:16:06;;;;;;;;;;;13.90;99.90;;;;;;4843646;29;20672;-76
2023/01/04 05:18:32;;;;;;;1.95;1.58;;;14.20;99.90;;;;;;4857250;29;19920;-76
2023/01/04 05:20:58;;;;;;;2.03;1.50;;;14.00;99.90;;;;;;4824200;29;20125;-77
2023/01/04 05:23:23;;;;;;;1.73;1.60;;;14.20;99.90;;;;;;4846190;29;20664;-77
2023/01/04 05:25:58;;;;;;;4.07;1.90;;;14.20;99.90;;;;;;4857345;29;20055;-77
2023/01/04 05:28:24;;;;;;;2.25;1.83;;;14.20;99.90;;;;;;4857306;29;20057;-77
2023/01/04 05:30:51;;;;;;;1.75;1.65;;;14.30;99.90;;;;;;4839882;29;20059;-76
2023/01/04 05:33:25;;;;;;;2.88;2.00;;;14.10;99.90;;;;;;4858896;29;20053;-77
2023/01/04 05:35:51;;;;;;;1.95;1.77;;;14.00;99.90;;;;;;4857742;29;20085;-77
2023/01/04 05:38:18;;;;;;;1.98;1.75;;;14.30;99.90;;;;;;4857834;29;20060;-76
2023/01/04 05:40:44;;;;;;;1.98;1.70;;;14.00;99.90;;;;;;4858568;29;20037;-76
2023/01/04 05:43:12;;;;;;;;;;;14.00;99.90;;;;;;4827668;29;20053;-76
2023/01/04 05:45:39;;;;;;;2.90;1.58;;;14.20;99.90;;;;;;4850863;29;19928;-76
2023/01/04 05:48:05;;;;;;;3.28;1.70;;;14.20;99.90;;;;;;4842077;29;20124;-76
2023/01/04 05:50:31;;;;;;;2.03;1.60;;;14.30;99.90;;;;;;4855754;29;20136;-77
2023/01/04 05:52:57;;;;;;;1.80;1.30;;;14.00;99.90;;;;;;4841613;29;20037;-76
2023/01/04 05:55:23;;;;;;;1.40;1.30;;;13.90;99.90;;;;;;4840442;29;20053;-78
2023/01/04 05:57:50;;;;;;;1.63;1.10;;;14.10;99.90;;;;;;4825664;29;20078;-77
2023/01/04 06:00:16;;;;;;;1.35;0.93;;;14.00;99.90;;;;;;4856705;29;20075;-76
2023/01/04 06:02:42;;;;;;;1.33;0.90;;;13.80;99.90;;;;;;4840239;29;20054;-76
2023/01/04 06:05:09;;;;;;;;;;;13.80;99.90;;;;;;4852943;29;20050;-76
2023/01/04 06:07:35;;;;;;;1.77;0.90;;;14.20;99.90;;;;;;4835029;29;19920;-77
2023/01/04 06:10:00;;;;;;;4.13;0.93;;;14.20;99.90;;;;;;4840336;29;20048;-76
2023/01/04 06:12:26;;;;;;;0.70;0.70;;;14.00;99.90;;;;;;4843192;29;20093;-76
2023/01/04 06:14:52;;;;;;;1.13;0.95;;;13.90;99.90;;;;;;4855901;29;20049;-76
2023/01/04 06:17:18;;;;;;;0.80;0.80;;;14.20;99.90;;;;;;4853726;29;20056;-76
2023/01/04 06:19:44;;;;;;;2.20;1.00;;;13.80;99.90;;;;;;4825979;29;20053;-76
2023/01/04 06:22:10;;;;;;;2.55;1.00;;;14.10;99.90;;;;;;4859557;29;20042;-76
2023/01/04 06:24:36;;;;;;;1.42;1.10;;;14.10;99.90;;;;;;4853622;29;20513;-79
2023/01/04 06:27:02;;;;;;;1.50;1.08;;;14.20;99.90;;;;;;4855622;29;20162;-76
2023/01/04 06:29:28;;;;;;;;;;;13.90;99.90;;;;;;4856615;29;20052;-75
2023/01/04 06:31:54;;;;;;;1.73;1.30;;;14.20;99.90;;;;;;4856901;29;19923;-77
2023/01/04 06:34:19;;;;;;;1.65;0.93;;;14.20;99.90;;;;;;4856220;29;20053;-77
2023/01/04 06:36:45;;;;;;;2.15;1.10;;;14.40;99.90;;;;;;4855725;29;20045;-77
2023/01/04 06:39:11;;;;;;;1.63;1.02;;;14.40;99.90;;;;;;4855036;29;20494;-77
2023/01/04 06:41:37;;;;;;;2.65;1.15;;;14.20;99.90;;;;;;4826298;29;20500;-77
2023/01/04 06:44:03;;;;;;;1.45;0.93;;;14.00;99.90;;;;;;4856117;29;20064;-70
2023/01/04 06:46:28;;;;;;;1.55;1.10;;;14.40;99.90;;;;;;4855955;29;20053;-70
2023/01/04 06:48:54;;;;;;;1.58;1.13;;;14.50;99.90;;;;;;4856352;29;20046;-70
2023/01/04 06:51:21;;;;;;;1.70;1.05;;;14.30;99.90;;;;;;4856384;29;20086;-70
2023/01/04 06:53:46;;;;;;;;;;;14.60;99.90;;;;;;4840645;29;20494;-70
2023/01/04 06:56:12;;;;;;;2.05;1.10;;;14.50;99.90;;;;;;4856328;29;20003;-69
2023/01/04 06:58:38;;;;;;;2.17;1.10;;;14.10;99.90;;;;;;4855821;29;20085;-69
2023/01/04 07:01:04;;;;;;;1.90;1.10;;;14.60;99.90;;;;;;4854476;29;20088;-69
2023/01/04 07:03:30;;;;;;;2.38;1.05;;;14.50;99.90;;;;;;4840099;29;20391;-70
2023/01/04 07:05:56;;;;;;;2.35;1.08;;;14.60;99.90;;;;;;4856136;29;20113;-70
2023/01/04 07:08:21;;;;;;;1.83;1.10;;;14.50;99.90;;;;;;4854241;29;20053;-70
2023/01/04 07:10:47;;;;;;;2.25;1.10;;;14.20;99.90;;;;;;4843720;29;20049;-70
2023/01/04 07:13:13;;;;;;;1.67;1.10;;;14.30;99.90;;;;;;4857125;29;20049;-70
2023/01/04 07:15:39;;;;;;;1.65;1.00;;;14.30;99.90;;;;;;4839427;29;20128;-70
2023/01/04 07:18:05;;;;;;;1.58;1.10;;;14.30;99.90;;;;;;4860656;29;20041;-70
2023/01/04 07:20:30;;;;;;;2.30;1.48;;;14.50;99.90;;;;;;4830732;29;20078;-70
2023/01/04 07:22:56;;;;;;;4.93;2.00;;;14.30;99.90;;;;;;4840786;29;20072;-70
2023/01/04 07:25:22;;;;;;;4.45;1.70;;;14.40;99.90;;;;;;4861588;29;20452;-70
2023/01/04 07:27:52;;;;;;;5.13;2.25;;;14.70;99.90;;;;;;4838357;29;20128;-70
2023/01/04 07:30:19;;;;;;;4.65;1.75;;;14.40;99.90;;;;;;4852642;29;20149;-69
2023/01/04 07:32:45;;;;;;;3.83;1.65;;;14.60;99.90;;;;;;4855351;29;20046;-72
2023/01/04 07:35:13;;;;;;;4.10;1.60;;;14.70;99.90;;;;;;4837983;29;20054;-71
2023/01/04 07:37:41;;;;;;;3.38;1.38;;;14.60;99.90;;;;;;4843214;29;20041;-72
2023/01/04 07:40:08;;;;;;;1.98;1.20;;;14.50;99.90;;;;;;4852411;29;20083;-70
2023/01/04 07:42:33;;;;;;;2.03;1.20;;;14.30;99.90;;;;;;4853887;29;20090;-71
2023/01/04 07:44:59;;;;;;;3.13;1.45;;;14.60;99.90;;;;;;4836904;29;20053;-71
2023/01/04 07:47:26;;;;;;;3.17;1.33;;;14.60;99.90;;;;;;4844024;29;20046;-72
2023/01/04 07:49:52;;;;;;;2.97;1.13;;;14.50;99.90;;;;;;4844526;29;20109;-70
2023/01/04 07:52:18;;;;;;;4.60;1.20;;;14.30;99.90;;;;;;4860081;29;20045;-71
2023/01/04 07:54:44;;;;;;;2.33;1.02;;;14.30;99.90;;;;;;4858698;29;20078;-70
2023/01/04 07:57:10;;;;;;;2.85;1.45;;;14.30;99.90;;;;;;4858922;29;20057;-69
2023/01/04 07:59:35;;;;;;;2.38;1.10;;;14.30;99.90;;;;;;4859462;29;20113;-71
2023/01/04 08:02:01;;;;;;;1.75;0.90;;;14.60;99.90;;;;;;4859703;29;20147;-70
2023/01/04 08:04:27;;;;;;;2.15;1.10;;;14.70;99.90;;;;;;4843742;29;20467;-70
2023/01/04 08:06:52;;;;;;;4.80;1.35;;;14.70;99.90;;;;;;4859159;29;20041;-70
2023/01/04 08:09:21;;;;;;;3.53;1.15;;;14.50;99.90;;;;;;4859681;29;20049;-70
2023/01/04 08:11:47;;;;;;;3.45;1.10;;;14.70;99.90;;;;;;4828911;29;20077;-76
2023/01/04 08:14:13;;;;;;;1.63;0.95;;;14.40;99.90;;;;;;4859624;29;20084;-76
2023/01/04 08:16:41;;;;;;;3.40;1.30;;;14.30;99.90;;;;;;4860085;29;20172;-77
2023/01/04 08:19:16;;;;;;;2.92;1.20;;;14.30;99.90;;;;;;4859712;29;20057;-76
2023/01/04 08:21:42;;;;;;;2.50;1.00;;;14.40;99.90;;;;;;4859866;29;20497;-75
2023/01/04 08:24:10;;;;;;;1.75;0.90;;;14.30;99.90;;;;;;4841074;29;20106;-76
2023/01/04 08:26:36;;;;;;;2.03;0.98;;;14.40;99.90;;;;;;4841654;29;20401;-76
2023/01/04 08:29:02;;;;;;;3.17;1.08;;;14.80;99.90;;;;;;4841188;29;20106;-76
2023/01/04 08:31:30;;;;;;;1.55;1.00;;;14.40;99.90;;;;;;4841428;29;20042;-76
2023/01/04 08:33:57;;;;;;;1.95;1.10;;;14.80;99.90;;;;;;4841732;29;20133;-77
2023/01/04 08:36:31;;;;;;;2.03;1.00;;;14.40;99.90;;;;;;4841479;29;20132;-76
2023/01/04 08:39:03;;;;;;;2.90;0.90;;;14.80;99.90;;;;;;4841524;29;20549;-76
2023/01/04 08:41:30;;;;;;;2.28;0.95;;;14.80;99.90;;;;;;4841502;29;20089;-76
2023/01/04 08:43:56;;;;;;;2.95;1.02;;;14.80;99.90;;;;;;4841218;29;20061;-76
2023/01/04 08:46:22;;;;;;;1.92;0.90;;;14.50;99.90;;;;;;4841744;29;20050;-77
2023/01/04 08:48:48;;;;;;;2.40;0.90;;;14.40;99.90;;;;;;4841796;29;20046;-76
2023/01/04 08:51:15;;;;;;;1.95;0.77;;;14.80;99.90;;;;;;4841233;29;20439;-77
2023/01/04 08:53:41;;;;;;;1.80;0.77;;;14.80;99.90;;;;;;4825507;29;20094;-77
2023/01/04 08:56:07;;;;;;;;;;;14.90;99.90;;;;;;4825501;29;20122;-76
2023/01/04 08:58:34;;;;;;;1.35;0.75;;;14.50;99.90;;;;;;4840985;29;19924;-77
2023/01/04 09:01:05;;;;;;;1.70;0.70;;;14.50;99.90;;;;;;4841317;29;20054;-76
2023/01/04 09:03:31;;;;;;;1.92;0.73;;;14.50;99.90;;;;;;4825946;29;20050;-77
2023/01/04 09:06:08;;;;;;;1.20;0.50;;;14.50;99.90;;;;;;4842585;29;20410;-76
2023/01/04 09:08:36;;;;;;;1.92;0.80;;;15.00;99.90;;;;;;4841146;29;20069;-77
2023/01/04 09:11:16;;;;;;;1.38;0.50;;;14.90;99.90;;;;;;4841370;29;20042;-77
2023/01/04 09:13:42;;;;;;;2.47;0.82;;;15.00;99.90;;;;;;4841686;29;20050;-77
2023/01/04 09:16:09;;;;;;;;;;;15.00;99.90;;;;;;4842190;29;20431;-76
2023/01/04 09:18:35;;;;;;;2.38;0.98;;;15.00;99.90;;;;;;4826060;29;19932;-78
2023/01/04 09:21:15;;;;;;;2.83;0.90;;;15.10;99.90;;;;;;4840859;29;20049;-77
2023/01/04 09:23:42;;;;;;;5.75;1.52;;;15.00;99.90;;;;;;4831085;29;20046;-71
2023/01/04 09:26:22;;;;;;;3.92;1.13;;;15.20;99.90;;;;;;4839717;29;20050;-70
2023/01/04 09:28:49;;;;;;;2.70;0.80;;;14.60;99.90;;;;;;4839688;29;20053;-71
2023/01/04 09:31:20;;;;;;;4.82;1.30;;;15.10;99.90;;;;;;4824264;29;20045;-71
2023/01/04 09:33:46;;;;;;;4.10;1.40;;;14.90;99.90;;;;;;4840103;29;20058;-71
2023/01/04 09:36:14;;;;;;;3.97;1.52;;;15.00;99.90;;;;;;4854851;29;20064;-71
2023/01/04 09:38:40;;;;;;;5.70;1.65;;;14.90;99.90;;;;;;4839554;29;20057;-71
2023/01/04 09:41:12;;;;;;;;;;;15.00;99.90;;;;;;4839876;29;20090;-71
2023/01/04 09:43:46;;;;;;;5.30;1.58;;;14.90;99.90;;;;;;4854893;29;19928;-70
2023/01/04 09:46:49;;;;;;;6.97;2.13;;;15.20;99.90;;;;;;4824314;29;20125;-71
2023/01/04 09:49:33;;;;;;;5.35;1.70;;;15.00;99.90;;;;;;4824176;29;20046;-71
2023/01/04 09:52:08;;;;;;;6.22;1.70;;;15.00;99.90;;;;;;4839178;29;20076;-71
2023/01/04 09:54:56;;;;;;;7.18;2.10;;;14.90;99.90;;;;;;4854916;29;20058;-71
2023/01/04 09:57:29;;;;;;;6.78;1.75;;;15.00;99.90;;;;;;4811844;29;20065;-69
2023/01/04 10:00:01;;;;;;;7.47;2.47;;;15.20;99.90;;;;;;4839020;29;20133;-70
2023/01/04 10:02:46;;;;;;;4.82;1.60;;;14.90;99.90;;;;;;4839436;29;20046;-70
2023/01/04 10:05:22;;;;;;;7.40;1.98;;;15.20;99.90;;;;;;4838840;29;20119;-70
2023/01/04 10:07:48;;;;;;;9.60;2.13;;;14.80;99.90;;;;;;4840352;29;20041;-70
2023/01/04 10:10:16;;;;;;;9.40;1.98;;;15.00;99.90;;;;;;4854403;29;20379;-70
2023/01/04 10:13:15;;;;;;;10.50;1.92;;;15.20;99.90;;;;;;4839004;29;20053;-70
2023/01/04 10:15:56;;;;;;;9.48;2.28;;;15.10;99.90;;;;;;4839061;29;20049;-71
2023/01/04 10:18:30;;;;;;;8.98;2.08;;;14.90;99.90;;;;;;4854165;29;20054;-71
2023/01/04 10:21:15;;;;;;;13.30;2.90;;;15.30;99.90;;;;;;4838901;29;20050;-69
2023/01/04 10:24:08;;;;;;;12.20;2.60;;;15.30;99.90;;;;;;4841662;29;20490;-71
2023/01/04 10:26:45;;;;;;;9.77;2.17;;;15.30;99.90;;;;;;4857372;29;20046;-70
2023/01/04 10:29:16;;;;;;;10.73;2.42;;;14.90;99.90;;;;;;4841747;29;20056;-70
2023/01/04 10:32:00;;;;;;;14.98;2.88;;;14.90;99.90;;;;;;4855475;29;20132;-70
2023/01/04 10:34:28;;;;;;;12.98;2.60;;;15.00;99.90;;;;;;4855820;29;20216;-70
2023/01/04 10:37:03;;;;;;;11.55;3.08;;;15.30;99.90;;;;;;4857990;29;20045;-77
2023/01/04 10:39:32;;;;;;;10.68;2.40;;;14.90;99.90;;;;;;4858130;29;20056;-77
2023/01/04 10:42:05;;;;;;;12.50;3.15;;;15.10;99.90;;;;;;4859381;29;20387;-77
2023/01/04 10:45:00;;;;;;;17.75;2.70;;;15.00;99.90;;;;;;4847061;29;20181;-77
2023/01/04 10:47:42;;;;;;;14.10;2.88;;;15.20;99.90;;;;;;4860433;29;20174;-77
2023/01/04 10:50:17;;;;;;;17.25;3.15;;;15.30;99.90;;;;;;4862260;29;20046;-77
2023/01/04 10:52:49;;;;;;;13.45;2.97;;;15.10;99.90;;;;;;4862354;29;20409;-76
2023/01/04 10:55:53;;;;;;;15.45;3.58;;;15.20;99.90;;;;;;4846880;29;20053;-77
2023/01/04 10:58:56;;;;;;;14.55;3.33;;;15.10;99.90;;;;;;4820937;29;20061;-77
2023/01/04 11:01:36;;;;;;;20.08;3.63;;;15.40;99.90;;;;;;4846749;29;20060;-77
2023/01/04 11:04:12;;;;;;;20.70;4.10;;;15.20;99.90;;;;;;4862250;29;20410;-77
2023/01/04 11:06:40;;;;;;;14.63;3.25;;;15.40;99.90;;;;;;4862066;29;20156;-77
2023/01/04 11:09:14;;;;;;;21.60;4.10;;;15.30;99.90;;;;;;4846624;29;20045;-77
2023/01/04 11:11:45;;;;;;;21.88;4.32;;;15.20;99.90;;;;;;4861376;29;20632;-77
2023/01/04 11:14:14;;;;;;;20.10;4.25;;;15.20;99.90;;;;;;4846332;29;20049;-78
2023/01/04 11:16:45;;;;;;;15.95;3.33;;;15.20;99.90;;;;;;4862258;29;20406;-78
2023/01/04 11:19:11;;;;;;;24.08;4.68;;;15.00;99.90;;;;;;4861983;29;20078;-76
2023/01/04 11:21:53;;;;;;;23.55;4.53;;;15.00;99.90;;;;;;4846116;29;20052;-77
2023/01/04 11:24:20;;;;;;;19.65;4.00;;;14.90;99.90;;;;;;4860710;29;20458;-76
2023/01/04 11:26:47;;;;;;;20.65;3.55;;;14.90;99.90;;;;;;4861208;29;20521;-77
2023/01/04 11:29:48;;;;;;;15.10;3.45;;;14.90;99.90;;;;;;4861126;29;20084;-77
2023/01/04 11:32:38;;;;;;;10.93;2.58;;;14.60;99.90;;;;;;4845801;29;20046;-76
2023/01/04 11:35:04;;;;;;;14.38;2.85;;;14.70;99.90;;;;;;4846689;29;20052;-77
2023/01/04 11:37:32;;;;;;;13.82;2.92;;;14.60;99.90;;;;;;4860430;29;20053;-69
2023/01/04 11:40:21;;;;;;;13.07;2.78;;;14.50;99.90;;;;;;4844600;29;20049;-69
2023/01/04 11:43:08;;;;;;;14.35;3.10;;;14.30;99.90;;;;;;4860155;29;20053;-70
2023/01/04 11:45:34;;;;;;;21.17;3.80;;;14.50;99.90;;;;;;4859810;29;20049;-70
2023/01/04 11:48:05;;;;;;;19.92;3.47;;;14.30;99.90;;;;;;4844329;29;20049;-69
2023/01/04 11:50:42;;;;;;;17.88;3.95;;;14.30;99.90;;;;;;4860060;29;20076;-70
2023/01/04 11:53:23;;;;;;;;;;;14.30;99.90;;;;;;4859928;29;20497;-70
2023/01/04 11:55:49;;;;;;;24.88;4.53;;;14.20;99.90;;;;;;4859645;29;19931;-70
2023/01/04 11:58:17;;;;;;;25.88;4.00;;;14.40;99.90;;;;;;4844247;29;20061;-70
2023/01/04 12:00:52;;;;;;;19.02;3.40;;;14.30;99.90;;;;;;4859497;29;20061;-70
2023/01/04 12:03:25;;;;;;;23.27;3.80;;;14.50;99.90;;;;;;4859357;29;20045;-70
2023/01/04 12:05:51;;;;;;;19.80;3.20;;;14.50;99.90;;;;;;4859581;29;20050;-70
2023/01/04 12:08:32;;;;;;;15.65;3.72;;;14.40;99.90;;;;;;4860855;29;20049;-76
2023/01/04 12:11:01;;;;;;;19.00;3.25;;;14.40;99.90;;;;;;4859569;29;20564;-70
2023/01/04 12:13:28;;;;;;;20.55;3.75;;;14.40;99.90;;;;;;4860105;29;20081;-77
2023/01/04 12:16:02;;;;;;;15.25;3.17;;;14.30;99.90;;;;;;4845900;29;20045;-76
2023/01/04 12:18:33;;;;;;;18.52;3.00;;;14.30;99.90;;;;;;4860659;29;20090;-77
2023/01/04 12:21:00;;;;;;;16.10;3.72;;;14.30;99.90;;;;;;4860756;29;20081;-77
2023/01/04 12:23:27;;;;;;;14.88;3.20;;;14.20;99.90;;;;;;4860606;29;20128;-77
2023/01/04 12:25:53;;;;;;;;;;;14.10;99.90;;;;;;4861145;29;20045;-77
2023/01/04 12:28:40;;;;;;;16.35;3.15;;;14.20;99.90;;;;;;4860930;29;20081;-77
2023/01/04 12:31:17;;;;;;;11.55;2.50;;;14.10;99.90;;;;;;4860740;29;20660;-77
2023/01/04 12:33:51;;;;;;;15.35;2.95;;;14.00;99.90;;;;;;4861332;29;20053;-77
2023/01/04 12:36:43;;;;;;;12.20;2.33;;;14.00;99.90;;;;;;4861626;29;20195;-77
2023/01/04 12:39:15;;;;;;;13.68;2.30;;;14.00;99.90;;;;;;4861076;29;20045;-77
2023/01/04 12:41:42;;;;;;;12.75;2.50;;;14.00;99.90;;;;;;4861141;29;20506;-77
2023/01/04 12:44:35;;;;;;;11.15;2.22;;;13.90;99.90;;;;;;4845183;29;20454;-77
2023/01/04 12:49:56;;;;;;;6.53;1.92;;;13.80;99.90;;;;;;4860218;29;20061;-76
2023/01/04 12:52:22;;;;;;;11.00;2.15;;;13.80;99.90;;;;;;4844402;29;20041;-77
2023/01/04 12:55:04;;;;;;;8.38;2.40;;;13.80;99.90;;;;;;4844978;29;20105;-76
2023/01/04 12:57:34;;;;;;;13.63;2.80;;;13.60;99.90;;;;;;4860469;29;20060;-77
2023/01/04 13:00:08;;;;;;;8.15;2.00;;;13.70;99.90;;;;;;4861489;29;20141;-77
2023/01/04 13:02:51;;;;;;;10.70;1.95;;;13.60;99.90;;;;;;4862041;29;20053;-77
2023/01/04 13:05:16;;;;;;;9.75;1.88;;;13.60;99.90;;;;;;4859505;29;20054;-76
2023/01/04 13:07:54;;;;;;;9.88;1.92;;;13.50;99.90;;;;;;4843942;29;20041;-78
2023/01/04 13:10:42;;;;;;;12.77;2.10;;;13.50;99.90;;;;;;4860441;29;20038;-77
2023/01/04 13:13:07;;;;;;;6.95;2.15;;;13.40;99.90;;;;;;4844378;29;20074;-77
2023/01/04 13:15:52;;;;;;;12.52;2.30;;;13.40;99.90;;;;;;4844252;29;20049;-77
2023/01/04 13:18:46;;;;;;;11.80;2.42;;;13.40;99.90;;;;;;4859206;29;20050;-78
2023/01/04 13:21:35;;;;;;;10.40;2.33;;;13.40;99.90;;;;;;4860166;29;20137;-77
2023/01/04 13:24:05;;;;;;;11.80;2.15;;;13.40;99.90;;;;;;4859395;29;20494;-78
2023/01/04 13:26:31;;;;;;;12.55;2.63;;;13.40;99.90;;;;;;4859696;29;20072;-78
2023/01/04 13:29:17;;;;;;;18.58;3.13;;;13.40;99.90;;;;;;4859586;29;20517;-77
2023/01/04 13:31:55;;;;;;;15.93;3.00;;;13.30;99.90;;;;;;4844102;29;20143;-78
2023/01/04 13:34:34;;;;;;;15.88;2.75;;;13.30;99.90;;;;;;4859467;29;20628;-77
2023/01/04 13:37:17;;;;;;;15.38;3.15;;;13.30;99.90;;;;;;4859630;29;20085;-76
2023/01/04 13:40:15;;;;;;;16.75;3.03;;;13.30;99.90;;;;;;4859660;29;20044;-76
2023/01/04 13:42:46;;;;;;;18.20;3.15;;;13.30;99.90;;;;;;4859215;29;20053;-69
2023/01/04 13:45:20;;;;;;;19.00;3.00;;;13.30;99.90;;;;;;4857781;29;20049;-69
2023/01/04 13:47:54;;;;;;;19.02;3.05;;;13.20;99.90;;;;;;4857822;29;20486;-69
2023/01/04 13:50:36;;;;;;;17.33;3.10;;;13.20;99.90;;;;;;4857673;29;20243;-69
2023/01/04 13:53:03;;;;;;;13.82;2.78;;;13.20;99.90;;;;;;4857721;29;20045;-70